sensor_id;sensor_type;location;lat;lon;timestamp;pressure;altitude;pressure_sealevel;temperature;humidity
80500;BME280;69823;54.120;-4.710;2023-08-17T00:01:51;100581.61;;;29.13;26.11
80500;BME280;69823;54.120;-4.710;2023-08-17T00:04:17;100583.44;;;29.05;26.09
80500;BME280;69823;54.120;-4.710;2023-08-17T00:06:43;100582.66;;;29.09;26.09
80500;BME280;69823;54.120;-4.710;2023-08-17T00:09:09;100583.08;;;29.08;26.09
80500;BME280;69823;54.120;-4.710;2023-08-17T00:11:34;100582.88;;;29.37;26.03
80500;BME280;69823;54.120;-4.710;2023-08-17T00:14:00;100582.63;;;29.13;26.03
80500;BME280;69823;54.120;-4.710;2023-08-17T00:16:25;100585.32;;;29.27;25.93
80500;BME280;69823;54.120;-4.710;2023-08-17T00:18:51;100587.15;;;29.54;26.03
80500;BME280;69823;54.120;-4.710;2023-08-17T00:21:17;100586.28;;;29.47;26.20
80500;BME280;69823;54.120;-4.710;2023-08-17T00:23:42;100583.54;;;29.41;26.17
80500;BME280;69823;54.120;-4.710;2023-08-17T00:26:08;100581.24;;;28.96;26.20
80500;BME280;69823;54.120;-4.710;2023-08-17T00:28:33;100581.93;;;29.01;26.13
80500;BME280;69823;54.120;-4.710;2023-08-17T00:31:00;100585.85;;;29.08;26.11
80500;BME280;69823;54.120;-4.710;2023-08-17T00:33:25;100579.15;;;28.97;26.05
80500;BME280;69823;54.120;-4.710;2023-08-17T00:35:50;100576.39;;;28.98;26.01
80500;BME280;69823;54.120;-4.710;2023-08-17T00:38:16;100576.03;;;28.95;26.03
80500;BME280;69823;54.120;-4.710;2023-08-17T00:40:42;100576.06;;;29.00;26.13
80500;BME280;69823;54.120;-4.710;2023-08-17T00:43:08;100573.99;;;28.98;26.02
80500;BME280;69823;54.120;-4.710;2023-08-17T00:45:34;100572.22;;;28.99;26.01
80500;BME280;69823;54.120;-4.710;2023-08-17T00:47:59;100575.57;;;29.07;25.96
80500;BME280;69823;54.120;-4.710;2023-08-17T00:50:25;100574.70;;;29.01;25.96
80500;BME280;69823;54.120;-4.710;2023-08-17T00:52:51;100574.84;;;29.00;25.95
80500;BME280;69823;54.120;-4.710;2023-08-17T00:55:16;100572.59;;;28.96;25.98
80500;BME280;69823;54.120;-4.710;2023-08-17T00:57:42;100569.82;;;29.21;25.95
80500;BME280;69823;54.120;-4.710;2023-08-17T01:00:08;100565.28;;;28.97;25.92
80500;BME280;69823;54.120;-4.710;2023-08-17T01:02:33;100565.32;;;28.96;25.89
80500;BME280;69823;54.120;-4.710;2023-08-17T01:04:59;100561.54;;;28.94;25.92
80500;BME280;69823;54.120;-4.710;2023-08-17T01:07:24;100561.97;;;29.14;25.88
80500;BME280;69823;54.120;-4.710;2023-08-17T01:09:50;100561.43;;;28.84;25.70
80500;BME280;69823;54.120;-4.710;2023-08-17T01:12:20;100563.29;;;28.73;25.77
80500;BME280;69823;54.120;-4.710;2023-08-17T01:14:49;100560.25;;;28.96;25.68
80500;BME280;69823;54.120;-4.710;2023-08-17T01:17:12;100559.46;;;28.70;25.59
80500;BME280;69823;54.120;-4.710;2023-08-17T01:19:33;100560.84;;;28.69;25.60
80500;BME280;69823;54.120;-4.710;2023-08-17T01:22:03;100556.76;;;28.68;25.60
80500;BME280;69823;54.120;-4.710;2023-08-17T01:24:24;100557.66;;;29.20;25.59
80500;BME280;69823;54.120;-4.710;2023-08-17T01:26:50;100558.52;;;28.80;25.45
80500;BME280;69823;54.120;-4.710;2023-08-17T01:29:15;100557.81;;;28.78;25.54
80500;BME280;69823;54.120;-4.710;2023-08-17T01:31:44;100556.02;;;28.69;25.35
80500;BME280;69823;54.120;-4.710;2023-08-17T01:34:10;100553.10;;;28.57;25.30
80500;BME280;69823;54.120;-4.710;2023-08-17T01:36:37;100546.60;;;28.99;25.34
80500;BME280;69823;54.120;-4.710;2023-08-17T01:39:00;100543.65;;;28.70;25.20
80500;BME280;69823;54.120;-4.710;2023-08-17T01:41:25;100540.74;;;28.76;25.14
80500;BME280;69823;54.120;-4.710;2023-08-17T01:43:50;100542.72;;;28.72;25.25
80500;BME280;69823;54.120;-4.710;2023-08-17T01:46:16;100541.17;;;28.68;25.28
80500;BME280;69823;54.120;-4.710;2023-08-17T01:48:41;100541.24;;;28.61;25.24
80500;BME280;69823;54.120;-4.710;2023-08-17T01:51:06;100535.47;;;28.59;25.21
80500;BME280;69823;54.120;-4.710;2023-08-17T01:53:32;100537.05;;;28.58;25.29
80500;BME280;69823;54.120;-4.710;2023-08-17T01:55:58;100536.58;;;28.90;25.23
80500;BME280;69823;54.120;-4.710;2023-08-17T01:58:23;100534.46;;;28.65;25.36
80500;BME280;69823;54.120;-4.710;2023-08-17T02:00:49;100531.81;;;28.84;25.11
80500;BME280;69823;54.120;-4.710;2023-08-17T02:03:15;100530.19;;;28.66;25.04
80500;BME280;69823;54.120;-4.710;2023-08-17T02:05:44;100530.08;;;28.62;25.11
80500;BME280;69823;54.120;-4.710;2023-08-17T02:08:06;100525.30;;;28.61;25.10
80500;BME280;69823;54.120;-4.710;2023-08-17T02:10:32;100524.36;;;28.56;25.05
80500;BME280;69823;54.120;-4.710;2023-08-17T02:12:57;100522.56;;;28.44;25.00
80500;BME280;69823;54.120;-4.710;2023-08-17T02:15:23;100519.54;;;28.58;25.02
80500;BME280;69823;54.120;-4.710;2023-08-17T02:17:49;100518.85;;;28.15;25.13
80500;BME280;69823;54.120;-4.710;2023-08-17T02:20:14;100519.37;;;28.03;25.13
80500;BME280;69823;54.120;-4.710;2023-08-17T02:22:40;100524.13;;;28.02;25.11
80500;BME280;69823;54.120;-4.710;2023-08-17T02:25:07;100523.35;;;28.02;25.30
80500;BME280;69823;54.120;-4.710;2023-08-17T02:27:32;100523.87;;;28.23;24.98
80500;BME280;69823;54.120;-4.710;2023-08-17T02:29:57;100521.88;;;28.57;25.04
80500;BME280;69823;54.120;-4.710;2023-08-17T02:32:23;100521.04;;;28.26;25.02
80500;BME280;69823;54.120;-4.710;2023-08-17T02:34:49;100519.15;;;28.34;25.01
80500;BME280;69823;54.120;-4.710;2023-08-17T02:37:14;100519.25;;;28.25;25.05
80500;BME280;69823;54.120;-4.710;2023-08-17T02:39:40;100516.48;;;27.96;25.05
80500;BME280;69823;54.120;-4.710;2023-08-17T02:42:06;100515.22;;;28.00;25.07
80500;BME280;69823;54.120;-4.710;2023-08-17T02:44:31;100515.22;;;28.02;25.00
80500;BME280;69823;54.120;-4.710;2023-08-17T02:46:57;100514.90;;;27.95;24.90
80500;BME280;69823;54.120;-4.710;2023-08-17T02:49:23;100515.17;;;27.80;25.06
80500;BME280;69823;54.120;-4.710;2023-08-17T02:51:48;100515.08;;;28.04;25.07
80500;BME280;69823;54.120;-4.710;2023-08-17T02:54:14;100512.92;;;28.22;25.22
80500;BME280;69823;54.120;-4.710;2023-08-17T02:56:40;100511.54;;;28.31;24.88
80500;BME280;69823;54.120;-4.710;2023-08-17T02:59:05;100510.53;;;28.30;24.98
80500;BME280;69823;54.120;-4.710;2023-08-17T03:01:31;100512.90;;;28.32;24.73
80500;BME280;69823;54.120;-4.710;2023-08-17T03:03:57;100513.04;;;28.35;25.00
80500;BME280;69823;54.120;-4.710;2023-08-17T03:06:22;100513.65;;;28.31;24.93
80500;BME280;69823;54.120;-4.710;2023-08-17T03:08:48;100508.47;;;28.36;24.83
80500;BME280;69823;54.120;-4.710;2023-08-17T03:11:14;100508.46;;;28.08;24.99
80500;BME280;69823;54.120;-4.710;2023-08-17T03:13:40;100508.10;;;28.15;24.83
80500;BME280;69823;54.120;-4.710;2023-08-17T03:16:05;100508.17;;;28.09;24.86
80500;BME280;69823;54.120;-4.710;2023-08-17T03:18:31;100506.23;;;28.27;25.08
80500;BME280;69823;54.120;-4.710;2023-08-17T03:20:57;100505.58;;;28.16;25.03
80500;BME280;69823;54.120;-4.710;2023-08-17T03:23:22;100507.81;;;28.23;24.93
80500;BME280;69823;54.120;-4.710;2023-08-17T03:25:51;100508.29;;;28.07;24.91
80500;BME280;69823;54.120;-4.710;2023-08-17T03:28:14;100507.49;;;28.17;25.01
80500;BME280;69823;54.120;-4.710;2023-08-17T03:30:39;100504.07;;;28.10;24.99
80500;BME280;69823;54.120;-4.710;2023-08-17T03:33:05;100499.69;;;28.24;25.08
80500;BME280;69823;54.120;-4.710;2023-08-17T03:35:31;100496.13;;;28.10;25.05
80500;BME280;69823;54.120;-4.710;2023-08-17T03:37:56;100495.37;;;27.67;25.15
80500;BME280;69823;54.120;-4.710;2023-08-17T03:40:22;100492.06;;;27.83;25.16
80500;BME280;69823;54.120;-4.710;2023-08-17T03:42:48;100491.39;;;27.85;25.24
80500;BME280;69823;54.120;-4.710;2023-08-17T03:45:14;100487.17;;;27.86;25.16
80500;BME280;69823;54.120;-4.710;2023-08-17T03:47:39;100480.91;;;27.85;25.28
80500;BME280;69823;54.120;-4.710;2023-08-17T03:50:06;100482.92;;;27.87;25.23
80500;BME280;69823;54.120;-4.710;2023-08-17T03:52:31;100484.18;;;27.59;25.18
80500;BME280;69823;54.120;-4.710;2023-08-17T03:54:56;100485.72;;;27.84;25.22
80500;BME280;69823;54.120;-4.710;2023-08-17T03:57:22;100482.21;;;27.87;25.31
80500;BME280;69823;54.120;-4.710;2023-08-17T03:59:48;100479.18;;;27.82;25.25
80500;BME280;69823;54.120;-4.710;2023-08-17T04:02:13;100477.75;;;27.51;25.35
80500;BME280;69823;54.120;-4.710;2023-08-17T04:04:39;100475.13;;;27.51;25.33
80500;BME280;69823;54.120;-4.710;2023-08-17T04:07:05;100473.17;;;27.76;25.38
80500;BME280;69823;54.120;-4.710;2023-08-17T04:09:30;100468.16;;;27.61;25.40
80500;BME280;69823;54.120;-4.710;2023-08-17T04:11:56;100468.99;;;27.78;25.28
80500;BME280;69823;54.120;-4.710;2023-08-17T04:14:22;100469.42;;;27.58;25.39
80500;BME280;69823;54.120;-4.710;2023-08-17T04:16:48;100468.77;;;27.62;25.45
80500;BME280;69823;54.120;-4.710;2023-08-17T04:19:13;100466.97;;;27.92;25.29
80500;BME280;69823;54.120;-4.710;2023-08-17T04:21:39;100464.04;;;27.95;25.26
80500;BME280;69823;54.120;-4.710;2023-08-17T04:24:05;100461.40;;;27.83;25.25
80500;BME280;69823;54.120;-4.710;2023-08-17T04:26:30;100459.67;;;27.53;25.32
80500;BME280;69823;54.120;-4.710;2023-08-17T04:28:56;100459.83;;;27.80;25.50
80500;BME280;69823;54.120;-4.710;2023-08-17T04:31:22;100458.09;;;28.21;25.32
80500;BME280;69823;54.120;-4.710;2023-08-17T04:33:47;100463.60;;;27.91;25.29
80500;BME280;69823;54.120;-4.710;2023-08-17T04:36:13;100459.06;;;27.91;25.45
80500;BME280;69823;54.120;-4.710;2023-08-17T04:38:39;100459.41;;;27.87;25.39
80500;BME280;69823;54.120;-4.710;2023-08-17T04:41:05;100456.46;;;27.94;25.27
80500;BME280;69823;54.120;-4.710;2023-08-17T04:43:30;100456.23;;;27.94;25.60
80500;BME280;69823;54.120;-4.710;2023-08-17T04:45:56;100455.54;;;27.93;25.49
80500;BME280;69823;54.120;-4.710;2023-08-17T04:48:22;100454.19;;;27.90;25.54
80500;BME280;69823;54.120;-4.710;2023-08-17T04:50:48;100453.21;;;27.68;25.52
80500;BME280;69823;54.120;-4.710;2023-08-17T04:53:13;100456.96;;;27.63;25.44
80500;BME280;69823;54.120;-4.710;2023-08-17T04:55:39;100456.84;;;27.93;25.44
80500;BME280;69823;54.120;-4.710;2023-08-17T04:58:04;100458.69;;;27.95;25.54
80500;BME280;69823;54.120;-4.710;2023-08-17T05:00:30;100454.92;;;27.78;25.57
80500;BME280;69823;54.120;-4.710;2023-08-17T05:02:56;100455.90;;;27.73;25.52
80500;BME280;69823;54.120;-4.710;2023-08-17T05:05:22;100457.20;;;27.48;25.55
80500;BME280;69823;54.120;-4.710;2023-08-17T05:07:47;100457.91;;;27.80;25.53
80500;BME280;69823;54.120;-4.710;2023-08-17T05:10:13;100456.16;;;27.77;25.52
80500;BME280;69823;54.120;-4.710;2023-08-17T05:12:39;100454.01;;;27.69;25.57
80500;BME280;69823;54.120;-4.710;2023-08-17T05:15:05;100454.82;;;27.83;25.65
80500;BME280;69823;54.120;-4.710;2023-08-17T05:17:30;100455.32;;;28.02;25.67
80500;BME280;69823;54.120;-4.710;2023-08-17T05:19:56;100457.97;;;27.90;25.45
80500;BME280;69823;54.120;-4.710;2023-08-17T05:22:22;100458.69;;;27.96;25.48
80500;BME280;69823;54.120;-4.710;2023-08-17T05:24:47;100458.69;;;27.95;25.43
80500;BME280;69823;54.120;-4.710;2023-08-17T05:27:13;100453.64;;;27.89;25.57
80500;BME280;69823;54.120;-4.710;2023-08-17T05:29:39;100454.67;;;27.88;25.57
80500;BME280;69823;54.120;-4.710;2023-08-17T05:32:05;100453.03;;;27.94;25.52
80500;BME280;69823;54.120;-4.710;2023-08-17T05:34:30;100458.46;;;27.94;25.52
80500;BME280;69823;54.120;-4.710;2023-08-17T05:36:56;100460.55;;;27.96;25.51
80500;BME280;69823;54.120;-4.710;2023-08-17T05:39:21;100464.64;;;28.03;25.64
80500;BME280;69823;54.120;-4.710;2023-08-17T05:41:47;100464.18;;;28.41;25.60
80500;BME280;69823;54.120;-4.710;2023-08-17T05:44:13;100466.21;;;27.91;25.57
80500;BME280;69823;54.120;-4.710;2023-08-17T05:46:39;100468.23;;;27.97;25.66
80500;BME280;69823;54.120;-4.710;2023-08-17T05:49:04;100466.12;;;27.88;25.57
80500;BME280;69823;54.120;-4.710;2023-08-17T05:51:30;100471.12;;;27.91;25.64
80500;BME280;69823;54.120;-4.710;2023-08-17T05:53:56;100472.66;;;28.05;25.53
80500;BME280;69823;54.120;-4.710;2023-08-17T05:56:21;100471.57;;;27.95;25.62
80500;BME280;69823;54.120;-4.710;2023-08-17T05:58:47;100471.28;;;27.94;25.55
80500;BME280;69823;54.120;-4.710;2023-08-17T06:01:13;100470.68;;;27.92;25.58
80500;BME280;69823;54.120;-4.710;2023-08-17T06:03:38;100470.04;;;27.89;25.67
80500;BME280;69823;54.120;-4.710;2023-08-17T06:06:05;100470.97;;;27.97;25.76
80500;BME280;69823;54.120;-4.710;2023-08-17T06:08:30;100469.56;;;28.02;25.81
80500;BME280;69823;54.120;-4.710;2023-08-17T06:10:56;100467.21;;;28.21;25.73
80500;BME280;69823;54.120;-4.710;2023-08-17T06:13:21;100466.31;;;27.88;25.69
80500;BME280;69823;54.120;-4.710;2023-08-17T06:15:47;100466.07;;;28.29;25.74
80500;BME280;69823;54.120;-4.710;2023-08-17T06:18:13;100462.86;;;28.04;25.72
80500;BME280;69823;54.120;-4.710;2023-08-17T06:20:38;100460.70;;;27.90;25.84
80500;BME280;69823;54.120;-4.710;2023-08-17T06:23:04;100462.94;;;28.08;25.80
80500;BME280;69823;54.120;-4.710;2023-08-17T06:25:30;100459.07;;;28.06;25.77
80500;BME280;69823;54.120;-4.710;2023-08-17T06:27:56;100460.37;;;27.97;25.71
80500;BME280;69823;54.120;-4.710;2023-08-17T06:30:21;100460.05;;;27.77;25.73
80500;BME280;69823;54.120;-4.710;2023-08-17T06:32:47;100460.12;;;27.93;25.79
80500;BME280;69823;54.120;-4.710;2023-08-17T06:35:13;100461.40;;;27.94;25.86
80500;BME280;69823;54.120;-4.710;2023-08-17T06:37:38;100463.58;;;28.32;25.78
80500;BME280;69823;54.120;-4.710;2023-08-17T06:40:05;100458.26;;;28.04;25.77
80500;BME280;69823;54.120;-4.710;2023-08-17T06:42:30;100459.31;;;28.19;25.73
80500;BME280;69823;54.120;-4.710;2023-08-17T06:44:56;100457.15;;;28.40;25.78
80500;BME280;69823;54.120;-4.710;2023-08-17T06:47:21;100456.68;;;28.14;25.81
80500;BME280;69823;54.120;-4.710;2023-08-17T06:49:47;100448.70;;;28.19;25.88
80500;BME280;69823;54.120;-4.710;2023-08-17T06:52:13;100447.57;;;27.97;25.90
80500;BME280;69823;54.120;-4.710;2023-08-17T06:54:38;100445.86;;;28.04;25.86
80500;BME280;69823;54.120;-4.710;2023-08-17T06:57:04;100440.62;;;28.22;25.81
80500;BME280;69823;54.120;-4.710;2023-08-17T06:59:30;100439.44;;;28.07;25.87
80500;BME280;69823;54.120;-4.710;2023-08-17T07:01:57;100440.76;;;28.25;25.82
80500;BME280;69823;54.120;-4.710;2023-08-17T07:04:21;100435.29;;;28.07;25.84
80500;BME280;69823;54.120;-4.710;2023-08-17T07:06:47;100434.22;;;28.07;25.89
80500;BME280;69823;54.120;-4.710;2023-08-17T07:09:13;100428.46;;;28.04;25.92
80500;BME280;69823;54.120;-4.710;2023-08-17T07:11:38;100429.29;;;28.30;25.98
80500;BME280;69823;54.120;-4.710;2023-08-17T07:14:04;100427.70;;;28.07;25.89
80500;BME280;69823;54.120;-4.710;2023-08-17T07:16:30;100424.51;;;28.07;25.84
80500;BME280;69823;54.120;-4.710;2023-08-17T07:18:55;100422.40;;;28.04;25.86
80500;BME280;69823;54.120;-4.710;2023-08-17T07:21:21;100420.58;;;28.02;25.96
80500;BME280;69823;54.120;-4.710;2023-08-17T07:23:47;100421.08;;;27.98;26.00
80500;BME280;69823;54.120;-4.710;2023-08-17T07:26:13;100415.62;;;27.93;25.96
80500;BME280;69823;54.120;-4.710;2023-08-17T07:28:38;100416.60;;;28.06;26.04
80500;BME280;69823;54.120;-4.710;2023-08-17T07:31:04;100416.43;;;28.04;25.92
80500;BME280;69823;54.120;-4.710;2023-08-17T07:33:29;100417.25;;;28.00;25.93
80500;BME280;69823;54.120;-4.710;2023-08-17T07:35:55;100420.46;;;28.09;25.88
80500;BME280;69823;54.120;-4.710;2023-08-17T07:38:20;100420.13;;;28.04;25.99
80500;BME280;69823;54.120;-4.710;2023-08-17T07:40:46;100422.29;;;28.07;25.94
80500;BME280;69823;54.120;-4.710;2023-08-17T07:43:12;100418.43;;;28.02;25.97
80500;BME280;69823;54.120;-4.710;2023-08-17T07:45:38;100418.09;;;28.14;25.96
80500;BME280;69823;54.120;-4.710;2023-08-17T07:48:04;100418.54;;;28.14;25.95
80500;BME280;69823;54.120;-4.710;2023-08-17T07:50:29;100416.81;;;28.10;25.93
80500;BME280;69823;54.120;-4.710;2023-08-17T07:52:55;100419.22;;;27.91;25.92
80500;BME280;69823;54.120;-4.710;2023-08-17T07:55:21;100422.90;;;28.10;25.87
80500;BME280;69823;54.120;-4.710;2023-08-17T07:57:46;100420.00;;;28.36;25.89
80500;BME280;69823;54.120;-4.710;2023-08-17T08:00:12;100422.91;;;28.39;25.98
80500;BME280;69823;54.120;-4.710;2023-08-17T08:02:38;100422.79;;;28.37;25.99
80500;BME280;69823;54.120;-4.710;2023-08-17T08:05:04;100425.16;;;28.35;25.96
80500;BME280;69823;54.120;-4.710;2023-08-17T08:07:29;100428.15;;;28.68;25.95
80500;BME280;69823;54.120;-4.710;2023-08-17T08:09:55;100425.75;;;28.44;25.91
80500;BME280;69823;54.120;-4.710;2023-08-17T08:12:20;100425.00;;;28.76;25.90
80500;BME280;69823;54.120;-4.710;2023-08-17T08:14:46;100423.71;;;28.31;26.15
80500;BME280;69823;54.120;-4.710;2023-08-17T08:17:12;100423.10;;;28.70;26.03
80500;BME280;69823;54.120;-4.710;2023-08-17T08:19:37;100423.59;;;28.68;25.84
80500;BME280;69823;54.120;-4.710;2023-08-17T08:22:03;100424.51;;;28.83;25.67
80500;BME280;69823;54.120;-4.710;2023-08-17T08:24:29;100419.63;;;28.96;25.53
80500;BME280;69823;54.120;-4.710;2023-08-17T08:26:54;100416.24;;;29.17;25.35
80500;BME280;69823;54.120;-4.710;2023-08-17T08:29:20;100416.74;;;29.31;25.17
80500;BME280;69823;54.120;-4.710;2023-08-17T08:31:46;100406.72;;;29.35;25.20
80500;BME280;69823;54.120;-4.710;2023-08-17T08:34:11;100410.51;;;29.41;25.09
80500;BME280;69823;54.120;-4.710;2023-08-17T08:36:37;100410.00;;;29.47;25.10
80500;BME280;69823;54.120;-4.710;2023-08-17T08:39:03;100400.47;;;29.13;25.16
80500;BME280;69823;54.120;-4.710;2023-08-17T08:41:29;100403.93;;;29.17;25.15
80500;BME280;69823;54.120;-4.710;2023-08-17T08:43:54;100410.11;;;29.32;25.00
80500;BME280;69823;54.120;-4.710;2023-08-17T08:46:20;100405.64;;;29.48;25.09
80500;BME280;69823;54.120;-4.710;2023-08-17T08:48:47;100407.62;;;29.17;25.12
80500;BME280;69823;54.120;-4.710;2023-08-17T08:51:13;100405.08;;;29.48;25.09
80500;BME280;69823;54.120;-4.710;2023-08-17T08:53:38;100406.78;;;29.50;25.10
80500;BME280;69823;54.120;-4.710;2023-08-17T08:56:03;100409.55;;;29.49;25.04
80500;BME280;69823;54.120;-4.710;2023-08-17T08:58:29;100409.68;;;29.56;25.04
80500;BME280;69823;54.120;-4.710;2023-08-17T09:00:54;100410.43;;;29.56;25.04
80500;BME280;69823;54.120;-4.710;2023-08-17T09:03:20;100407.62;;;29.42;25.16
80500;BME280;69823;54.120;-4.710;2023-08-17T09:05:47;100406.31;;;29.38;25.23
80500;BME280;69823;54.120;-4.710;2023-08-17T09:08:12;100404.42;;;29.62;25.00
80500;BME280;69823;54.120;-4.710;2023-08-17T09:10:37;100402.70;;;29.63;25.01
80500;BME280;69823;54.120;-4.710;2023-08-17T09:13:03;100409.12;;;29.62;25.03
80500;BME280;69823;54.120;-4.710;2023-08-17T09:15:28;100401.73;;;29.21;24.96
80500;BME280;69823;54.120;-4.710;2023-08-17T09:17:54;100403.16;;;29.79;24.90
80500;BME280;69823;54.120;-4.710;2023-08-17T09:20:35;100398.29;;;29.81;24.91
80500;BME280;69823;54.120;-4.710;2023-08-17T09:22:45;100406.35;;;29.51;24.95
80500;BME280;69823;54.120;-4.710;2023-08-17T09:25:11;100404.71;;;29.69;25.03
80500;BME280;69823;54.120;-4.710;2023-08-17T09:27:37;100405.36;;;29.66;25.02
80500;BME280;69823;54.120;-4.710;2023-08-17T09:30:03;100402.09;;;29.75;24.99
80500;BME280;69823;54.120;-4.710;2023-08-17T09:32:30;100403.32;;;29.78;24.96
80500;BME280;69823;54.120;-4.710;2023-08-17T09:34:53;100401.66;;;29.90;24.86
80500;BME280;69823;54.120;-4.710;2023-08-17T09:37:19;100396.17;;;29.36;24.89
80500;BME280;69823;54.120;-4.710;2023-08-17T09:39:45;100398.31;;;29.54;24.99
80500;BME280;69823;54.120;-4.710;2023-08-17T09:42:10;100393.56;;;29.66;25.12
80500;BME280;69823;54.120;-4.710;2023-08-17T09:44:37;100397.35;;;29.68;25.12
80500;BME280;69823;54.120;-4.710;2023-08-17T09:47:02;100398.08;;;29.58;25.14
80500;BME280;69823;54.120;-4.710;2023-08-17T09:49:31;100397.52;;;29.49;25.24
80500;BME280;69823;54.120;-4.710;2023-08-17T09:51:53;100396.98;;;29.47;25.29
80500;BME280;69823;54.120;-4.710;2023-08-17T09:54:21;100396.40;;;29.40;25.42
80500;BME280;69823;54.120;-4.710;2023-08-17T09:56:44;100388.79;;;29.56;25.30
80500;BME280;69823;54.120;-4.710;2023-08-17T09:59:10;100390.81;;;29.51;25.33
80500;BME280;69823;54.120;-4.710;2023-08-17T10:01:36;100398.54;;;29.11;25.26
80500;BME280;69823;54.120;-4.710;2023-08-17T10:04:02;100392.45;;;29.62;25.28
80500;BME280;69823;54.120;-4.710;2023-08-17T10:06:28;100389.70;;;29.47;25.16
80500;BME280;69823;54.120;-4.710;2023-08-17T10:08:54;100390.93;;;29.58;25.27
80500;BME280;69823;54.120;-4.710;2023-08-17T10:11:19;100387.79;;;29.57;25.11
80500;BME280;69823;54.120;-4.710;2023-08-17T10:13:50;100386.45;;;29.48;24.93
80500;BME280;69823;54.120;-4.710;2023-08-17T10:16:18;100390.40;;;29.56;24.89
80500;BME280;69823;54.120;-4.710;2023-08-17T10:18:39;100389.46;;;29.79;24.91
80500;BME280;69823;54.120;-4.710;2023-08-17T10:21:04;100387.72;;;29.98;24.95
80500;BME280;69823;54.120;-4.710;2023-08-17T10:23:27;100391.39;;;29.74;24.97
80500;BME280;69823;54.120;-4.710;2023-08-17T10:25:53;100391.29;;;29.76;24.97
80500;BME280;69823;54.120;-4.710;2023-08-17T10:28:19;100392.49;;;29.88;24.84
80500;BME280;69823;54.120;-4.710;2023-08-17T10:30:44;100390.43;;;29.90;24.84
80500;BME280;69823;54.120;-4.710;2023-08-17T10:33:10;100390.49;;;29.94;24.80
80500;BME280;69823;54.120;-4.710;2023-08-17T10:35:35;100391.13;;;30.00;24.51
80500;BME280;69823;54.120;-4.710;2023-08-17T10:38:02;100386.62;;;29.97;24.51
80500;BME280;69823;54.120;-4.710;2023-08-17T10:40:27;100389.96;;;30.35;24.40
80500;BME280;69823;54.120;-4.710;2023-08-17T10:42:54;100389.39;;;30.05;24.42
80500;BME280;69823;54.120;-4.710;2023-08-17T10:45:27;100385.50;;;30.23;24.73
80500;BME280;69823;54.120;-4.710;2023-08-17T10:47:43;100383.03;;;29.70;24.95
80500;BME280;69823;54.120;-4.710;2023-08-17T10:52:36;100383.38;;;29.77;25.21
80500;BME280;69823;54.120;-4.710;2023-08-17T10:55:01;100388.45;;;29.71;25.26
80500;BME280;69823;54.120;-4.710;2023-08-17T10:57:29;100381.02;;;29.73;25.26
80500;BME280;69823;54.120;-4.710;2023-08-17T11:00:07;100383.05;;;29.73;25.24
80500;BME280;69823;54.120;-4.710;2023-08-17T11:02:22;100383.17;;;29.34;25.14
80500;BME280;69823;54.120;-4.710;2023-08-17T11:04:50;100382.85;;;29.58;25.17
80500;BME280;69823;54.120;-4.710;2023-08-17T11:07:13;100377.75;;;29.79;25.12
80500;BME280;69823;54.120;-4.710;2023-08-17T11:09:35;100379.59;;;29.35;25.37
80500;BME280;69823;54.120;-4.710;2023-08-17T11:12:00;100384.76;;;29.59;25.37
80500;BME280;69823;54.120;-4.710;2023-08-17T11:14:32;100381.72;;;29.51;25.41
80500;BME280;69823;54.120;-4.710;2023-08-17T11:16:51;100373.83;;;29.47;25.48
80500;BME280;69823;54.120;-4.710;2023-08-17T11:19:18;100378.90;;;29.49;25.47
80500;BME280;69823;54.120;-4.710;2023-08-17T11:21:42;100376.84;;;29.43;25.52
80500;BME280;69823;54.120;-4.710;2023-08-17T11:24:10;100366.38;;;29.18;25.52
80500;BME280;69823;54.120;-4.710;2023-08-17T11:26:34;100376.26;;;29.11;25.59
80500;BME280;69823;54.120;-4.710;2023-08-17T11:29:00;100368.61;;;29.24;25.69
80500;BME280;69823;54.120;-4.710;2023-08-17T11:31:25;100369.72;;;29.03;25.86
80500;BME280;69823;54.120;-4.710;2023-08-17T11:33:51;100367.82;;;28.89;25.99
80500;BME280;69823;54.120;-4.710;2023-08-17T11:36:16;100369.38;;;28.88;26.07
80500;BME280;69823;54.120;-4.710;2023-08-17T11:38:43;100366.36;;;28.88;26.07
80500;BME280;69823;54.120;-4.710;2023-08-17T11:41:07;100368.64;;;28.58;26.15
80500;BME280;69823;54.120;-4.710;2023-08-17T11:43:33;100366.11;;;28.83;26.17
80500;BME280;69823;54.120;-4.710;2023-08-17T11:45:59;100363.62;;;28.86;26.16
80500;BME280;69823;54.120;-4.710;2023-08-17T11:48:24;100372.44;;;28.82;26.21
80500;BME280;69823;54.120;-4.710;2023-08-17T11:50:49;100363.43;;;28.80;26.21
80500;BME280;69823;54.120;-4.710;2023-08-17T11:53:15;100373.00;;;28.78;26.24
80500;BME280;69823;54.120;-4.710;2023-08-17T11:55:40;100364.39;;;28.63;26.36
80500;BME280;69823;54.120;-4.710;2023-08-17T11:58:05;100371.11;;;28.43;26.57
80500;BME280;69823;54.120;-4.710;2023-08-17T12:00:35;100367.93;;;28.49;26.55
80500;BME280;69823;54.120;-4.710;2023-08-17T12:02:56;100363.48;;;28.83;26.50
80500;BME280;69823;54.120;-4.710;2023-08-17T12:05:23;100360.84;;;29.09;26.27
80500;BME280;69823;54.120;-4.710;2023-08-17T12:07:48;100362.96;;;28.88;26.23
80500;BME280;69823;54.120;-4.710;2023-08-17T12:10:13;100366.43;;;28.45;26.41
80500;BME280;69823;54.120;-4.710;2023-08-17T12:12:38;100357.90;;;28.65;26.47
80500;BME280;69823;54.120;-4.710;2023-08-17T12:15:05;100361.63;;;28.55;26.62
80500;BME280;69823;54.120;-4.710;2023-08-17T12:17:29;100360.30;;;28.77;26.42
80500;BME280;69823;54.120;-4.710;2023-08-17T12:19:55;100362.24;;;28.74;26.47
80500;BME280;69823;54.120;-4.710;2023-08-17T12:22:23;100354.75;;;28.90;26.35
80500;BME280;69823;54.120;-4.710;2023-08-17T12:24:47;100353.83;;;29.25;26.07
80500;BME280;69823;54.120;-4.710;2023-08-17T12:27:12;100350.68;;;29.55;25.78
80500;BME280;69823;54.120;-4.710;2023-08-17T12:29:46;100349.49;;;29.76;25.58
80500;BME280;69823;54.120;-4.710;2023-08-17T12:32:04;100354.91;;;29.34;25.70
80500;BME280;69823;54.120;-4.710;2023-08-17T12:34:29;100347.54;;;29.34;25.91